Time;durP1;ratioP1;P1;durP2;ratioP2;P2;SDS_P1;SDS_P2;PMS_P1;PMS_P2;Temp;Humidity;BMP_temperature;BMP_pressure;BME280_temperature;BME280_humidity;BME280_pressure;Samples;Min_cycle;Max_cycle;Signal;HPM_P1;HPM_P2
2022/01/31 00:00:40;;;;;;;22.77;5.78;;;;;;;1.77;76.46;101112.94;6207199;23;20101;-67
2022/01/31 00:03:44;;;;;;;22.92;6.30;;;;;;;1.78;76.54;101098.31;6206513;23;20424;-67
2022/01/31 00:06:49;;;;;;;23.40;5.88;;;;;;;1.81;76.71;101087.97;6205422;23;20051;-67
2022/01/31 00:09:52;;;;;;;20.77;5.55;;;;;;;1.89;76.73;101073.31;6205992;23;20395;-67
2022/01/31 00:13:03;;;;;;;25.48;5.80;;;;;;;1.88;76.57;101048.38;6206289;23;20031;-67
2022/01/31 00:16:09;;;;;;;19.33;4.70;;;;;;;1.95;76.20;101054.38;6208663;23;20027;-67
2022/01/31 00:19:13;;;;;;;22.35;5.45;;;;;;;1.89;76.51;101039.78;6209016;23;20078;-67
2022/01/31 00:22:18;;;;;;;19.02;5.90;;;;;;;1.79;76.77;101026.13;6208296;23;20074;-67
2022/01/31 00:25:21;;;;;;;22.75;6.30;;;;;;;1.84;76.87;101023.47;6208501;23;20023;-67
2022/01/31 00:28:25;;;;;;;25.25;6.35;;;;;;;1.81;77.12;101011.47;6208322;23;20053;-67
2022/01/31 00:31:29;;;;;;;19.25;5.07;;;;;;;1.77;77.55;100998.63;6208054;23;20478;-67
2022/01/31 00:34:33;;;;;;;24.88;6.20;;;;;;;1.81;76.95;100970.22;6190205;23;20467;-67
2022/01/31 00:37:37;;;;;;;17.98;5.53;;;;;;;1.78;76.99;100971.97;6208469;23;20036;-67
2022/01/31 00:40:42;;;;;;;20.77;5.13;;;;;;;1.77;77.14;100929.03;6207740;23;20470;-67
2022/01/31 00:43:56;;;;;;;26.73;5.10;;;;;;;1.84;77.16;100907.44;6209206;23;20034;-67
2022/01/31 00:47:04;;;;;;;19.58;5.63;;;;;;;1.85;76.83;100883.38;6208224;23;20237;-67
2022/01/31 00:50:11;;;;;;;18.10;4.90;;;;;;;1.81;77.00;100871.38;6207823;23;20070;-67
2022/01/31 00:53:14;;;;;;;22.85;4.85;;;;;;;1.89;76.65;100868.75;6208360;23;20031;-67
2022/01/31 00:56:18;;;;;;;17.60;5.53;;;;;;;1.91;76.75;100836.88;6190470;23;20459;-67
2022/01/31 00:59:22;;;;;;;24.67;5.50;;;;;;;1.82;77.29;100800.91;6207762;23;20027;-67
2022/01/31 01:02:26;;;;;;;22.48;6.93;;;;;;;1.83;77.41;100785.41;6207753;23;20095;-67
2022/01/31 01:05:30;;;;;;;17.15;4.38;;;;;;;1.68;77.91;100772.69;6207059;23;20027;-67
2022/01/31 01:08:34;;;;;;;19.98;5.57;;;;;;;1.78;77.99;100763.13;6206167;23;20430;-68
2022/01/31 01:11:38;;;;;;;22.40;5.63;;;;;;;1.82;77.40;100757.09;6208114;23;20031;-67
2022/01/31 01:14:43;;;;;;;20.15;6.13;;;;;;;1.89;77.07;100756.13;6207750;23;20471;-67
2022/01/31 01:17:47;;;;;;;24.40;6.18;;;;;;;1.80;77.66;100743.34;6206823;23;20027;-67
2022/01/31 01:20:53;;;;;;;22.13;6.10;;;;;;;1.76;77.67;100734.81;6206062;23;20352;-67
2022/01/31 01:23:56;;;;;;;17.92;4.65;;;;;;;1.29;79.24;100735.38;6206337;23;20070;-67
2022/01/31 01:27:01;;;;;;;19.25;4.95;;;;;;;1.38;79.64;100718.09;6206864;23;20400;-67
2022/01/31 01:30:06;;;;;;;22.73;4.95;;;;;;;1.43;79.21;100681.94;6189446;23;20159;-67
2022/01/31 01:33:18;;;;;;;21.80;5.63;;;;;;;1.24;80.04;100657.28;6207646;23;20051;-67
2022/01/31 01:36:22;;;;;;;17.15;4.57;;;;;;;1.41;79.73;100651.94;6206376;23;20082;-67
2022/01/31 01:39:27;;;;;;;18.30;4.68;;;;;;;1.00;81.60;100654.13;6206966;23;20019;-67
2022/01/31 01:42:31;;;;;;;25.15;5.28;;;;;;;1.32;80.62;100661.47;6190319;23;20399;-67
2022/01/31 01:45:36;;;;;;;20.58;4.70;;;;;;;1.23;80.55;100637.53;6207056;23;20032;-67
2022/01/31 01:48:40;;;;;;;15.18;4.05;;;;;;;1.44;79.99;100623.56;6207805;23;20363;-67
2022/01/31 01:51:45;;;;;;;18.27;5.25;;;;;;;1.57;79.81;100615.63;6206449;23;20031;-67
2022/01/31 01:54:50;;;;;;;22.27;5.18;;;;;;;1.43;80.02;100602.06;6206139;23;20039;-67
2022/01/31 01:57:56;;;;;;;18.70;5.05;;;;;;;1.52;79.93;100607.09;6206501;23;20077;-67
2022/01/31 02:01:02;;;;;;;17.35;5.00;;;;;;;1.30;80.84;100600.53;6189035;23;20027;-67
2022/01/31 02:04:37;;;;;;;18.65;4.18;;;;;;;1.21;81.79;100580.03;6207516;23;20352;-67
2022/01/31 02:07:51;;;;;;;17.38;4.55;;;;;;;1.56;80.41;100562.41;6190630;23;20023;-67
2022/01/31 02:10:56;;;;;;;17.45;4.82;;;;;;;1.75;79.62;100552.63;6207169;23;20028;-67
2022/01/31 02:14:15;;;;;;;15.60;4.57;;;;;;;1.71;79.62;100560.44;6205889;23;20047;-67
2022/01/31 02:17:53;;;;;;;22.33;4.78;;;;;;;1.77;80.00;100566.34;6117973;23;20100;-68
2022/01/31 02:20:59;;;;;;;16.83;4.38;;;;;;;1.94;79.38;100572.97;6189051;23;20120;-67
2022/01/31 02:24:30;;;;;;;22.52;4.70;;;;;;;2.07;78.89;100559.88;6205342;23;20149;-67
2022/01/31 02:28:03;;;;;;;13.70;4.03;;;;;;;1.96;79.42;100535.13;6208134;23;20245;-67
2022/01/31 02:31:07;;;;;;;16.35;4.20;;;;;;;2.14;78.91;100528.78;6205854;23;20042;-67
2022/01/31 02:34:12;;;;;;;18.85;4.50;;;;;;;2.06;79.24;100518.63;6206491;23;20391;-67
2022/01/31 02:37:18;;;;;;;15.77;4.50;;;;;;;1.94;80.05;100504.19;6205212;23;20027;-67
2022/01/31 02:40:24;;;;;;;13.88;4.70;;;;;;;1.99;80.33;100483.50;6172142;23;20027;-67
2022/01/31 02:43:31;;;;;;;17.17;5.03;;;;;;;1.94;80.29;100468.09;6188729;23;20031;-67
2022/01/31 02:46:37;;;;;;;17.63;4.43;;;;;;;1.75;81.11;100446.09;6187619;23;20102;-67
2022/01/31 02:49:53;;;;;;;17.58;4.30;;;;;;;1.99;80.23;100442.25;6206761;23;20020;-67
2022/01/31 02:53:24;;;;;;;16.52;4.10;;;;;;;2.03;79.14;100426.66;6172725;23;20031;-67
2022/01/31 02:56:28;;;;;;;18.92;4.22;;;;;;;1.93;80.68;100416.56;6189964;23;20100;-67
2022/01/31 02:59:32;;;;;;;15.85;3.38;;;;;;;2.24;77.83;100402.19;6207782;23;20019;-67
2022/01/31 03:02:35;;;;;;;13.68;3.75;;;;;;;2.49;77.45;100387.06;6205623;23;20028;-67
2022/01/31 03:05:39;;;;;;;15.40;3.50;;;;;;;2.64;76.11;100365.22;6206124;23;20055;-67
2022/01/31 03:08:43;;;;;;;13.55;2.70;;;;;;;2.71;75.49;100346.16;6171132;23;20070;-67
2022/01/31 03:11:59;;;;;;;12.82;2.83;;;;;;;2.84;76.76;100323.47;6206374;23;20083;-67
2022/01/31 03:15:10;;;;;;;13.55;2.97;;;;;;;2.90;76.10;100315.53;6189221;23;20051;-67
2022/01/31 03:18:32;;;;;;;11.02;2.80;;;;;;;3.15;73.71;100292.53;6206693;23;20070;-68
2022/01/31 03:21:38;;;;;;;16.08;2.80;;;;;;;3.37;72.14;100269.56;6206269;23;20071;-67
2022/01/31 03:24:43;;;;;;;15.50;3.38;;;;;;;3.47;71.14;100252.94;6189622;23;20151;-67
2022/01/31 03:27:48;;;;;;;16.27;3.10;;;;;;;3.41;73.70;100237.59;6189198;23;20023;-67
2022/01/31 03:30:53;;;;;;;15.18;3.00;;;;;;;3.40;72.11;100233.31;6187479;23;20075;-67
2022/01/31 03:33:57;;;;;;;14.23;3.00;;;;;;;3.58;71.12;100205.28;6205595;23;20416;-67
2022/01/31 03:37:01;;;;;;;15.38;3.47;;;;;;;3.64;71.46;100205.94;6205689;23;20082;-67
2022/01/31 03:40:07;;;;;;;16.95;3.30;;;;;;;3.67;71.24;100203.28;6188362;23;20027;-67
2022/01/31 03:43:11;;;;;;;11.68;3.22;;;;;;;3.69;71.31;100187.69;6189340;23;20032;-67
2022/01/31 03:46:15;;;;;;;15.75;3.50;;;;;;;3.62;71.30;100175.84;6206332;23;20031;-67
2022/01/31 03:49:18;;;;;;;20.55;4.38;;;;;;;3.67;71.65;100155.84;6189640;23;20066;-67
2022/01/31 03:52:24;;;;;;;16.90;3.30;;;;;;;3.68;71.45;100140.31;6208076;23;20464;-67
2022/01/31 03:55:29;;;;;;;22.48;3.40;;;;;;;3.76;71.85;100146.97;6184513;23;20027;-67
2022/01/31 03:58:36;;;;;;;14.38;3.20;;;;;;;3.78;71.54;100129.69;6205380;23;20028;-67
2022/01/31 04:01:49;;;;;;;10.73;2.83;;;;;;;3.76;72.19;100127.13;6207973;23;20432;-67
2022/01/31 04:04:55;;;;;;;15.35;2.92;;;;;;;3.78;72.24;100112.44;6207975;23;20028;-67
2022/01/31 04:07:59;;;;;;;12.75;3.88;;;;;;;3.76;73.67;100103.88;6207356;23;20063;-67
2022/01/31 04:11:02;;;;;;;14.82;2.70;;;;;;;3.75;73.60;100096.16;6208638;23;20043;-67
2022/01/31 04:14:06;;;;;;;;;;;;;;;3.73;73.73;100086.72;6209115;23;20026;-67
2022/01/31 04:17:11;;;;;;;14.77;2.83;;;;;;;3.70;74.60;100075.59;6209525;23;19962;-67
2022/01/31 04:20:18;;;;;;;14.15;3.45;;;;;;;3.64;75.25;100086.16;6209655;23;20347;-67
2022/01/31 04:23:27;;;;;;;12.32;3.25;;;;;;;3.69;75.70;100089.44;6210263;23;20065;-67
2022/01/31 04:26:33;;;;;;;10.30;2.65;;;;;;;3.50;78.27;100090.00;6206983;23;20067;-67
2022/01/31 04:29:40;;;;;;;11.02;2.58;;;;;;;3.44;78.92;100079.00;6207197;23;20022;-67
2022/01/31 04:32:44;;;;;;;13.93;4.20;;;;;;;3.46;79.32;100078.06;6208056;23;20495;-67
2022/01/31 04:35:51;;;;;;;10.05;2.90;;;;;;;3.31;81.21;100078.50;6207439;23;20028;-67
2022/01/31 04:38:55;;;;;;;9.52;2.72;;;;;;;3.14;80.54;100076.44;6208388;23;20023;-67
2022/01/31 04:42:00;;;;;;;14.50;3.65;;;;;;;3.22;80.99;100055.53;6207490;23;20162;-67
2022/01/31 04:45:04;;;;;;;11.05;3.67;;;;;;;3.23;82.30;100059.81;6208388;23;20096;-67
2022/01/31 04:48:08;;;;;;;14.65;4.22;;;;;;;3.10;83.08;100074.84;6209642;23;20075;-67
2022/01/31 04:51:13;;;;;;;12.82;3.78;;;;;;;3.14;81.92;100040.25;6206396;23;20103;-67
2022/01/31 04:54:16;;;;;;;11.55;3.15;;;;;;;3.07;82.73;100048.25;6205444;23;20027;-67
2022/01/31 04:57:20;;;;;;;10.55;3.70;;;;;;;3.11;84.36;100036.94;6203468;23;20032;-67
2022/01/31 05:00:25;;;;;;;10.93;2.85;;;;;;;3.11;82.96;100044.69;6203847;23;20024;-67
2022/01/31 05:03:30;;;;;;;16.13;3.60;;;;;;;3.25;83.69;100014.97;6204912;23;20027;-67
2022/01/31 05:06:37;;;;;;;8.55;2.50;;;;;;;3.17;83.09;100023.84;6208756;23;20055;-67
2022/01/31 05:09:43;;;;;;;8.68;2.25;;;;;;;3.04;83.51;100023.34;6201904;23;20454;-67
2022/01/31 05:12:46;;;;;;;9.65;3.53;;;;;;;2.97;84.55;100016.69;6207639;23;20083;-67
2022/01/31 05:15:55;;;;;;;9.70;3.33;;;;;;;2.97;84.59;100032.19;6208859;23;20074;-67
2022/01/31 05:18:59;;;;;;;10.48;4.20;;;;;;;2.98;84.41;100008.88;6208204;23;20051;-67
2022/01/31 05:22:03;;;;;;;6.10;2.10;;;;;;;2.94;84.16;99985.78;6209876;23;20213;-67
2022/01/31 05:25:08;;;;;;;7.28;2.10;;;;;;;3.01;84.49;99993.28;6207672;23;20027;-67
2022/01/31 05:28:11;;;;;;;7.53;3.45;;;;;;;2.97;85.13;99976.19;6209101;23;20070;-67
2022/01/31 05:31:15;;;;;;;5.65;1.92;;;;;;;3.03;85.24;100013.88;6191057;23;20032;-67
2022/01/31 05:34:20;;;;;;;7.75;2.00;;;;;;;2.99;85.51;99978.72;6209459;23;20138;-67
2022/01/31 05:37:28;;;;;;;5.32;1.90;;;;;;;3.01;84.99;99977.78;6210572;23;20467;-67
2022/01/31 05:40:32;;;;;;;3.90;1.67;;;;;;;3.12;84.46;99969.72;6208811;23;20043;-67
2022/01/31 05:43:37;;;;;;;4.95;1.40;;;;;;;3.17;83.82;99967.84;6210374;23;20048;-67
2022/01/31 05:46:41;;;;;;;6.10;1.65;;;;;;;3.20;84.16;99975.50;6209463;23;20404;-67
2022/01/31 05:49:44;;;;;;;3.63;0.95;;;;;;;3.30;84.13;99976.06;6207277;23;20451;-67
2022/01/31 05:52:48;;;;;;;;;;;;;;;3.31;83.54;100001.00;6209011;23;20360;-67
2022/01/31 05:55:52;;;;;;;7.10;1.23;;;;;;;3.28;84.53;100008.84;6210331;23;20003;-67
2022/01/31 05:58:56;;;;;;;4.18;1.52;;;;;;;3.32;84.03;99966.53;6190759;23;20020;-67
2022/01/31 06:02:01;;;;;;;3.45;0.80;;;;;;;3.41;83.15;99971.38;6208361;23;20070;-67
2022/01/31 06:05:05;;;;;;;3.65;1.00;;;;;;;3.41;83.13;99971.38;6209172;23;20028;-67
2022/01/31 06:08:09;;;;;;;4.20;1.05;;;;;;;3.39;83.48;99968.03;6207521;23;20031;-67
2022/01/31 06:11:15;;;;;;;3.45;1.00;;;;;;;3.45;83.39;99962.66;6210025;23;20094;-67
2022/01/31 06:14:19;;;;;;;4.28;1.27;;;;;;;3.48;83.21;99962.56;6209693;23;20023;-67
2022/01/31 06:17:23;;;;;;;4.70;1.85;;;;;;;3.49;82.77;99964.25;6208801;23;20028;-67
2022/01/31 06:20:27;;;;;;;2.22;0.95;;;;;;;3.52;82.85;99972.81;6209131;23;20038;-67
2022/01/31 06:23:31;;;;;;;4.40;1.23;;;;;;;3.47;82.39;99952.25;6209717;23;20547;-67
2022/01/31 06:26:38;;;;;;;5.32;1.17;;;;;;;3.42;83.05;99969.66;6210383;23;20023;-67
2022/01/31 06:29:52;;;;;;;2.78;0.75;;;;;;;3.43;83.05;99979.09;6193496;23;20040;-67
2022/01/31 06:33:03;;;;;;;3.42;0.80;;;;;;;3.50;82.67;99990.94;6207608;23;20031;-67
2022/01/31 06:36:07;;;;;;;5.15;1.00;;;;;;;3.57;83.28;99970.91;6206950;23;20459;-68
2022/01/31 06:39:11;;;;;;;4.60;1.38;;;;;;;3.60;82.52;99961.28;6208124;23;20074;-67
2022/01/31 06:42:15;;;;;;;4.55;1.10;;;;;;;3.57;82.45;99956.22;6209081;23;20091;-67
2022/01/31 06:45:19;;;;;;;4.32;1.20;;;;;;;3.54;82.21;99958.91;6210292;23;20028;-67
2022/01/31 06:48:23;;;;;;;4.18;1.40;;;;;;;3.56;82.50;99959.72;6190087;23;20023;-67
2022/01/31 06:51:26;;;;;;;4.22;1.05;;;;;;;3.55;82.13;99952.03;6206651;23;20031;-67
2022/01/31 06:54:30;;;;;;;11.95;2.35;;;;;;;3.62;81.88;99966.44;6209053;23;20027;-67
2022/01/31 06:57:35;;;;;;;2.88;1.30;;;;;;;3.63;81.86;99955.19;6209120;23;20039;-67
2022/01/31 07:00:40;;;;;;;2.95;0.95;;;;;;;3.59;82.12;99959.63;6209060;23;20322;-67
2022/01/31 07:03:43;;;;;;;6.70;1.63;;;;;;;3.62;82.15;99958.69;6208749;23;20534;-67
2022/01/31 07:06:47;;;;;;;6.00;1.05;;;;;;;3.55;81.79;99963.22;6208766;23;20027;-67
2022/01/31 07:09:51;;;;;;;4.00;1.50;;;;;;;3.56;81.92;99970.06;6207296;23;20020;-67
2022/01/31 07:12:57;;;;;;;6.70;1.65;;;;;;;3.54;82.25;99977.00;6208268;23;20104;-68
2022/01/31 07:16:02;;;;;;;11.35;2.20;;;;;;;3.57;82.07;99947.63;6208791;23;20024;-67
2022/01/31 07:19:08;;;;;;;3.85;1.75;;;;;;;3.62;81.20;99938.00;6207036;23;20356;-67
2022/01/31 07:22:14;;;;;;;3.25;0.95;;;;;;;3.69;81.32;99937.72;6209062;23;20027;-67
2022/01/31 07:25:34;;;;;;;3.08;0.95;;;;;;;3.73;80.48;99941.06;6211280;23;20031;-67
2022/01/31 07:28:38;;;;;;;5.00;1.58;;;;;;;3.69;80.57;99918.78;6192389;23;20023;-67
2022/01/31 07:31:42;;;;;;;5.88;1.15;;;;;;;3.70;81.49;99925.63;6209590;23;20075;-67
2022/01/31 07:34:49;;;;;;;5.28;1.05;;;;;;;3.76;81.80;99917.69;6192791;23;20116;-67
2022/01/31 07:37:53;;;;;;;4.53;1.13;;;;;;;3.79;80.78;99919.31;6210693;23;20102;-67
2022/01/31 07:40:57;;;;;;;3.90;1.05;;;;;;;3.77;80.74;99927.16;6210968;23;20229;-67
2022/01/31 07:44:01;;;;;;;3.80;1.15;;;;;;;3.83;81.30;99916.59;6210511;23;20031;-67
2022/01/31 07:47:05;;;;;;;5.90;1.60;;;;;;;3.80;81.00;99929.63;6209294;23;20024;-67
2022/01/31 07:50:10;;;;;;;7.03;4.30;;;;;;;3.84;81.22;99923.44;6210493;23;20415;-67
2022/01/31 07:53:14;;;;;;;4.50;1.70;;;;;;;3.82;81.22;99904.53;6209705;23;20027;-67
2022/01/31 07:56:19;;;;;;;3.30;1.02;;;;;;;3.72;81.15;99896.25;6211641;23;20027;-67
2022/01/31 07:59:23;;;;;;;4.22;1.08;;;;;;;3.76;81.30;99902.16;6210451;23;20643;-67
2022/01/31 08:02:26;;;;;;;7.72;1.50;;;;;;;3.82;80.66;99903.69;6191378;23;20027;-67
2022/01/31 08:05:31;;;;;;;8.57;2.40;;;;;;;3.85;81.24;99904.44;6210042;23;20356;-67
2022/01/31 08:08:35;;;;;;;7.43;2.10;;;;;;;3.85;80.51;99906.19;6210427;23;20336;-67
2022/01/31 08:11:38;;;;;;;8.75;2.63;;;;;;;3.92;81.07;99905.94;6191943;23;20027;-67
2022/01/31 08:14:43;;;;;;;4.63;1.42;;;;;;;3.88;80.90;99912.09;6209103;23;20024;-67
2022/01/31 08:17:47;;;;;;;3.83;1.40;;;;;;;3.84;81.50;99902.75;6207297;23;20027;-67
2022/01/31 08:20:51;;;;;;;7.13;2.33;;;;;;;3.77;81.39;99893.53;6208531;23;20501;-67
2022/01/31 08:23:55;;;;;;;7.15;2.47;;;;;;;3.70;83.05;99907.53;6208097;23;20474;-67
2022/01/31 08:27:01;;;;;;;8.52;3.78;;;;;;;3.67;82.92;99899.88;6190420;23;20075;-67
2022/01/31 08:30:10;;;;;;;5.85;2.10;;;;;;;3.63;82.93;99877.63;6191345;23;20086;-68
2022/01/31 08:33:32;;;;;;;7.38;2.25;;;;;;;3.64;84.28;99887.94;6208916;23;20031;-68
2022/01/31 08:36:36;;;;;;;9.20;2.63;;;;;;;3.59;84.00;99909.66;6208547;23;20047;-67
2022/01/31 08:39:39;;;;;;;5.65;1.95;;;;;;;3.59;84.47;99896.72;6190850;23;20062;-67
2022/01/31 08:42:43;;;;;;;8.45;2.53;;;;;;;3.63;84.66;99877.63;6209169;23;20198;-67
2022/01/31 08:45:49;;;;;;;7.25;3.50;;;;;;;3.53;85.16;99886.59;6207592;23;20078;-67
2022/01/31 08:48:52;;;;;;;4.93;2.13;;;;;;;3.58;84.26;99884.72;6210976;23;20082;-67
2022/01/31 08:51:56;;;;;;;8.85;2.45;;;;;;;3.54;85.09;99888.28;6211134;23;20028;-67
2022/01/31 08:55:00;;;;;;;5.85;1.88;;;;;;;3.63;84.94;99887.97;6207469;23;20128;-67
2022/01/31 08:58:06;;;;;;;5.50;1.40;;;;;;;3.64;84.44;99881.94;6209783;23;20023;-67
2022/01/31 09:01:12;;;;;;;5.85;2.10;;;;;;;3.65;84.89;99879.28;6210396;23;20051;-67
2022/01/31 09:04:31;;;;;;;5.18;1.52;;;;;;;3.64;84.28;99889.69;6209180;23;20038;-67
2022/01/31 09:07:36;;;;;;;5.07;1.65;;;;;;;3.63;84.54;99881.06;6209760;23;20074;-67
2022/01/31 09:10:40;;;;;;;6.03;1.40;;;;;;;3.59;85.07;99910.50;6209237;23;20028;-67
2022/01/31 09:13:45;;;;;;;7.07;1.45;;;;;;;3.57;86.16;99889.00;6208041;23;20094;-67
2022/01/31 09:16:50;;;;;;;7.78;2.15;;;;;;;3.47;85.03;99908.31;6209343;23;20085;-67
2022/01/31 09:19:54;;;;;;;6.70;1.23;;;;;;;3.49;85.52;99894.44;6210556;23;20067;-67
2022/01/31 09:22:58;;;;;;;6.25;1.40;;;;;;;3.52;86.22;99896.09;6209137;23;20028;-67
2022/01/31 09:26:01;;;;;;;;;;;;;;;3.52;85.13;99895.25;6191436;23;20146;-67
2022/01/31 09:29:05;;;;;;;7.13;3.13;;;;;;;3.53;86.37;99902.09;6207529;23;19931;-67
2022/01/31 09:32:10;;;;;;;6.70;2.58;;;;;;;3.52;85.67;99905.59;6209665;23;20027;-67
2022/01/31 09:35:15;;;;;;;5.60;1.67;;;;;;;3.53;85.80;99896.94;6211253;23;20023;-67
2022/01/31 09:38:23;;;;;;;6.30;1.40;;;;;;;3.59;85.42;99914.81;6211149;23;20107;-66
2022/01/31 09:41:30;;;;;;;3.55;0.98;;;;;;;3.59;84.72;99894.16;6211041;23;20063;-67
2022/01/31 09:51:18;;;;;;;3.28;1.08;;;;;;;3.69;84.41;99877.41;6211073;23;20027;-66
2022/01/31 09:54:24;;;;;;;7.43;1.20;;;;;;;3.74;84.92;99888.47;6210572;23;20138;-67
2022/01/31 09:57:28;;;;;;;3.97;0.88;;;;;;;3.64;84.58;99889.69;6209451;23;20028;-67
2022/01/31 10:00:33;;;;;;;4.45;1.02;;;;;;;3.56;85.76;99873.56;6211019;23;20458;-67
2022/01/31 10:04:03;;;;;;;4.57;0.90;;;;;;;3.45;85.80;99889.44;6190111;23;20024;-67
2022/01/31 10:07:07;;;;;;;5.60;0.73;;;;;;;3.54;86.10;99875.34;6206844;23;20026;-67
2022/01/31 10:10:22;;;;;;;4.68;1.90;;;;;;;3.50;85.98;99870.28;6188866;23;20096;-67
2022/01/31 10:16:55;;;;;;;4.47;0.98;;;;;;;3.54;85.62;99867.59;6207362;23;20135;-67
2022/01/31 10:20:07;;;;;;;6.43;1.30;;;;;;;3.50;85.66;99857.38;6209610;23;20071;-67
2022/01/31 10:23:15;;;;;;;8.93;1.40;;;;;;;3.58;85.98;99866.63;6208997;23;20027;-67
2022/01/31 10:26:33;;;;;;;8.35;4.93;;;;;;;3.63;86.62;99867.28;6208313;23;20051;-67
2022/01/31 10:29:38;;;;;;;2.88;1.30;;;;;;;3.60;86.00;99865.66;6171287;23;20024;-67
2022/01/31 10:32:44;;;;;;;6.07;3.63;;;;;;;3.57;85.63;99849.41;6207760;23;20046;-67
2022/01/31 10:35:48;;;;;;;5.75;2.20;;;;;;;3.56;84.88;99861.50;6208942;23;20067;-67
2022/01/31 10:39:14;;;;;;;4.40;1.15;;;;;;;3.58;85.79;99841.59;6208348;23;20023;-67
2022/01/31 10:46:04;;;;;;;2.97;1.17;;;;;;;3.53;84.98;99853.00;6180261;23;20066;-67
2022/01/31 10:52:33;;;;;;;4.30;1.42;;;;;;;3.54;84.79;99867.59;6181241;23;20028;-67
2022/01/31 10:55:38;;;;;;;25.58;17.45;;;;;;;3.65;85.47;99870.69;6144951;23;20349;-67
2022/01/31 10:59:00;;;;;;;3.90;1.17;;;;;;;3.60;85.53;99862.22;6160215;23;20067;-67
2022/01/31 11:02:15;;;;;;;5.28;2.70;;;;;;;3.65;85.24;99857.75;6161626;23;20079;-67
2022/01/31 11:05:23;;;;;;;3.75;1.60;;;;;;;3.68;84.11;99853.31;6160324;23;20348;-67
2022/01/31 11:08:27;;;;;;;12.38;7.78;;;;;;;3.65;85.57;99857.75;6125294;23;20113;-67
2022/01/31 11:11:32;;;;;;;3.55;1.90;;;;;;;3.57;85.83;99867.50;6178508;23;20079;-67
2022/01/31 11:14:38;;;;;;;2.72;0.90;;;;;;;3.55;85.15;99848.63;6179212;23;20091;-67
2022/01/31 11:17:46;;;;;;;3.83;1.35;;;;;;;3.56;85.31;99860.66;6162014;23;20024;-67
2022/01/31 11:21:04;;;;;;;2.42;0.70;;;;;;;3.61;85.08;99858.75;6179584;23;20552;-67
2022/01/31 11:24:25;;;;;;;1.70;0.45;;;;;;;3.69;85.80;99859.31;6145087;23;20459;-67
2022/01/31 11:27:31;;;;;;;1.85;0.50;;;;;;;3.76;83.36;99853.03;6159954;23;20025;-67
2022/01/31 11:30:35;;;;;;;3.70;1.45;;;;;;;3.80;83.64;99846.88;6158205;23;20064;-67
2022/01/31 11:33:39;;;;;;;4.97;0.85;;;;;;;3.77;84.35;99854.75;6160391;23;20027;-67
2022/01/31 11:36:44;;;;;;;3.92;1.42;;;;;;;3.77;84.24;99849.56;6178502;23;20075;-67
2022/01/31 11:39:53;;;;;;;4.65;0.90;;;;;;;3.68;84.50;99847.31;6170398;23;20139;-67
2022/01/31 11:42:58;;;;;;;3.88;0.88;;;;;;;3.73;85.19;99863.47;6208533;23;20063;-67
2022/01/31 11:46:04;;;;;;;5.30;0.80;;;;;;;3.63;84.74;99867.28;6209110;23;20028;-67
2022/01/31 11:49:12;;;;;;;3.72;0.73;;;;;;;3.60;84.98;99862.22;6206702;23;20556;-67
2022/01/31 11:52:21;;;;;;;3.72;0.80;;;;;;;3.63;85.19;99862.97;6209111;23;20420;-67
2022/01/31 11:55:31;;;;;;;13.00;6.13;;;;;;;3.65;85.52;99862.91;6209014;23;20243;-67
2022/01/31 11:58:44;;;;;;;3.50;1.00;;;;;;;3.67;84.72;99863.69;6207172;23;20613;-67
2022/01/31 12:01:50;;;;;;;;;;;;;;;3.60;85.01;99882.91;6208655;23;20027;-67
2022/01/31 12:05:01;;;;;;;2.75;1.05;;;;;;;3.60;84.33;99880.31;6207565;23;19914;-67
2022/01/31 12:08:17;;;;;;;6.30;0.95;;;;;;;3.57;85.19;99862.31;6208500;23;20324;-67
2022/01/31 12:11:28;;;;;;;3.20;0.70;;;;;;;3.60;85.45;99885.50;6191350;23;20028;-67
2022/01/31 12:14:51;;;;;;;3.50;0.47;;;;;;;3.66;84.50;99893.03;6209895;23;20115;-67
2022/01/31 12:18:24;;;;;;;4.05;0.68;;;;;;;3.61;84.73;99882.03;6191759;23;20062;-67
2022/01/31 12:25:23;;;;;;;2.47;0.60;;;;;;;3.55;85.59;99895.16;6210289;23;20043;-68
2022/01/31 12:28:39;;;;;;;4.30;0.35;;;;;;;3.51;85.95;99873.75;6191591;23;20505;-67
2022/01/31 12:31:48;;;;;;;3.97;0.77;;;;;;;3.56;85.29;99891.66;6209689;23;20050;-67
2022/01/31 12:34:55;;;;;;;5.18;1.45;;;;;;;3.65;85.85;99875.84;6209292;23;20375;-67
2022/01/31 12:38:00;;;;;;;1.67;0.30;;;;;;;3.53;85.48;99871.09;6210089;23;20026;-67
2022/01/31 12:41:31;;;;;;;4.35;1.10;;;;;;;3.68;86.55;99875.75;6208973;23;20055;-67
2022/01/31 12:44:35;;;;;;;2.92;0.80;;;;;;;3.65;84.57;99881.84;6191454;23;20074;-67
2022/01/31 12:48:12;;;;;;;6.25;1.00;;;;;;;3.55;85.32;99877.06;6208305;23;20069;-67
2022/01/31 12:51:16;;;;;;;2.42;0.85;;;;;;;3.57;85.48;99872.66;6209924;23;20032;-68
2022/01/31 12:54:21;;;;;;;5.95;1.40;;;;;;;3.53;85.29;99882.25;6209630;23;20028;-67
2022/01/31 12:57:26;;;;;;;4.78;1.25;;;;;;;3.49;86.19;99891.88;6210584;23;20066;-67
2022/01/31 13:00:39;;;;;;;7.38;4.03;;;;;;;3.51;86.96;99868.56;6175141;23;20024;-67
2022/01/31 13:03:48;;;;;;;51.00;31.55;;;;;;;3.69;85.93;99880.00;6209646;23;20074;-67
2022/01/31 13:06:53;;;;;;;15.68;8.77;;;;;;;3.79;86.29;99894.31;6210519;23;20468;-67
2022/01/31 13:10:08;;;;;;;9.43;4.05;;;;;;;3.77;84.85;99878.00;6210695;23;20351;-67
2022/01/31 13:13:12;;;;;;;7.13;2.42;;;;;;;3.79;84.98;99889.13;6193438;23;20027;-67
2022/01/31 13:16:16;;;;;;;8.13;2.97;;;;;;;3.71;85.81;99884.25;6210601;23;20027;-67
2022/01/31 13:19:21;;;;;;;16.42;9.43;;;;;;;3.84;86.73;99882.06;6192946;23;20024;-67
2022/01/31 13:22:32;;;;;;;8.55;2.05;;;;;;;3.86;84.93;99913.91;6208620;23;20024;-67
2022/01/31 13:25:35;;;;;;;3.17;0.90;;;;;;;3.91;84.17;99917.16;6209469;23;20027;-67
2022/01/31 13:28:49;;;;;;;4.97;1.92;;;;;;;3.88;85.49;99930.19;6208347;23;20391;-67
2022/01/31 13:31:53;;;;;;;5.53;1.45;;;;;;;3.81;85.15;99939.06;6205603;23;20026;-67
2022/01/31 13:35:01;;;;;;;5.28;1.48;;;;;;;3.71;93.99;99942.88;6207166;23;20024;-67
2022/01/31 13:38:08;;;;;;;5.50;1.15;;;;;;;3.73;86.20;99956.56;6190829;23;20028;-67
2022/01/31 13:41:15;;;;;;;6.40;1.83;;;;;;;3.71;86.76;99969.56;6209244;23;20360;-67
2022/01/31 13:44:22;;;;;;;6.63;2.55;;;;;;;3.76;86.56;99965.97;6208331;23;20023;-67
2022/01/31 13:47:41;;;;;;;57.03;23.83;;;;;;;3.93;86.68;99995.56;6208571;23;20071;-67
2022/01/31 13:50:47;;;;;;;9.00;2.80;;;;;;;3.86;85.77;99988.91;6190705;23;20028;-67
2022/01/31 13:53:51;;;;;;;10.95;3.40;;;;;;;3.85;85.92;100009.63;6208396;23;20027;-67
2022/01/31 13:56:57;;;;;;;4.63;1.50;;;;;;;3.84;85.42;100006.22;6209757;23;20035;-67
2022/01/31 14:00:03;;;;;;;5.70;1.73;;;;;;;3.87;85.34;100011.28;6208849;23;20066;-67
2022/01/31 14:03:23;;;;;;;6.35;2.40;;;;;;;3.87;84.76;100031.13;6210121;23;20421;-67
2022/01/31 14:06:33;;;;;;;5.03;1.00;;;;;;;3.88;86.20;100017.28;6209421;23;20074;-67
2022/01/31 14:09:37;;;;;;;10.63;4.03;;;;;;;3.94;86.22;100024.84;6208332;23;20023;-67
2022/01/31 14:12:41;;;;;;;6.53;2.80;;;;;;;3.95;85.19;100029.13;6207932;23;20075;-67
2022/01/31 14:15:48;;;;;;;4.53;1.92;;;;;;;3.99;84.92;100042.78;6208706;23;20027;-67
2022/01/31 14:18:58;;;;;;;4.55;1.05;;;;;;;3.87;85.15;100029.38;6208409;23;20349;-67
2022/01/31 14:22:06;;;;;;;3.03;1.20;;;;;;;3.79;84.47;100017.59;6209301;23;20236;-67
2022/01/31 14:25:12;;;;;;;3.83;0.93;;;;;;;3.77;85.81;100038.34;6191223;23;20647;-67
2022/01/31 14:28:17;;;;;;;3.78;0.95;;;;;;;3.78;85.80;100023.66;6207008;23;20367;-67
2022/01/31 14:31:30;;;;;;;3.42;1.27;;;;;;;3.90;86.05;100042.22;6209341;23;20027;-67
2022/01/31 14:34:33;;;;;;;5.97;2.22;;;;;;;3.82;85.17;100031.25;6206758;23;20376;-67
2022/01/31 14:37:47;;;;;;;;;;;;;;;3.89;85.36;100057.78;6208331;23;20111;-67
2022/01/31 14:47:30;;;;;;;3.22;0.57;;;;;;;3.82;84.74;100051.94;6207373;23;20063;-67
2022/01/31 14:50:39;;;;;;;3.65;1.10;;;;;;;3.86;85.53;100052.69;6207368;23;20398;-67
2022/01/31 14:53:56;;;;;;;5.55;1.27;;;;;;;3.79;85.53;100059.81;6207032;23;20406;-67
2022/01/31 14:57:00;;;;;;;3.53;1.20;;;;;;;3.71;84.78;100062.66;6206273;23;20046;-68
2022/01/31 15:00:06;;;;;;;4.32;1.50;;;;;;;3.64;85.15;100070.66;6207686;23;20122;-67
2022/01/31 15:03:10;;;;;;;3.05;0.52;;;;;;;3.61;85.16;100071.59;6207499;23;20075;-67
2022/01/31 15:06:14;;;;;;;3.38;0.70;;;;;;;3.58;85.71;100068.25;6208249;23;20035;-67
2022/01/31 15:09:20;;;;;;;3.55;0.60;;;;;;;3.57;85.45;100094.97;6208821;23;20023;-67
2022/01/31 15:12:24;;;;;;;2.88;0.98;;;;;;;3.64;85.05;100086.16;6208678;23;20514;-67